createdAt,value
2023-04-22T00:00:18.008Z,6.70
2023-04-22T00:02:45.930Z,7.05
2023-04-22T00:05:15.925Z,7.25
2023-04-22T00:07:45.791Z,7.00
2023-04-22T00:10:13.161Z,7.22
2023-04-22T00:12:40.454Z,6.75
2023-04-22T00:15:08.311Z,6.93
2023-04-22T00:17:35.339Z,7.18
2023-04-22T00:20:02.382Z,7.97
2023-04-22T00:22:31.562Z,7.43
2023-04-22T00:24:58.554Z,7.28
2023-04-22T00:27:25.694Z,7.32
2023-04-22T00:29:52.939Z,8.30
2023-04-22T00:32:22.589Z,7.75
2023-04-22T00:34:50.679Z,6.63
2023-04-22T00:37:18.223Z,6.90
2023-04-22T00:39:45.853Z,7.55
2023-04-22T00:42:13.905Z,6.55
2023-04-22T00:44:41.278Z,7.32
2023-04-22T00:47:10.025Z,7.45
2023-04-22T00:49:37.614Z,8.25
2023-04-22T00:52:04.878Z,9.95
2023-04-22T00:54:33.950Z,12.43
2023-04-22T00:57:01.130Z,13.57
2023-04-22T00:59:28.175Z,13.18
2023-04-22T01:01:56.214Z,10.00
2023-04-22T01:04:23.456Z,10.18
2023-04-22T01:06:52.165Z,9.30
2023-04-22T01:09:21.034Z,9.48
2023-04-22T01:11:48.200Z,7.55
2023-04-22T01:14:15.912Z,8.20
2023-04-22T01:16:44.229Z,8.45
2023-04-22T01:19:11.967Z,8.00
2023-04-22T01:21:40.898Z,8.07
2023-04-22T01:24:09.061Z,6.90
2023-04-22T01:26:37.005Z,7.10
2023-04-22T01:29:05.384Z,7.00
2023-04-22T01:31:33.559Z,5.85
2023-04-22T01:34:00.767Z,6.85
2023-04-22T01:36:28.127Z,6.68
2023-04-22T01:38:55.761Z,7.03
2023-04-22T01:41:22.738Z,6.75
2023-04-22T01:43:50.729Z,6.53
2023-04-22T01:46:18.355Z,6.95
2023-04-22T01:48:50.588Z,6.45
2023-04-22T01:51:20.922Z,6.20
2023-04-22T01:53:48.990Z,6.05
2023-04-22T01:56:16.513Z,6.75
2023-04-22T01:58:43.841Z,6.28
2023-04-22T02:01:12.072Z,5.90
2023-04-22T02:03:39.385Z,7.97
2023-04-22T02:06:06.848Z,7.45
2023-04-22T02:08:33.972Z,7.10
2023-04-22T02:11:01.245Z,9.38
2023-04-22T02:13:39.199Z,10.43
2023-04-22T02:16:08.630Z,11.63
2023-04-22T02:18:36.014Z,12.45
2023-04-22T02:21:03.250Z,13.30
2023-04-22T02:23:30.600Z,12.05
2023-04-22T02:25:57.674Z,12.25
2023-04-22T02:28:25.965Z,12.25
2023-04-22T02:30:53.110Z,12.27
2023-04-22T02:33:21.423Z,12.80
2023-04-22T02:35:48.469Z,11.60
2023-04-22T02:38:19.359Z,8.88
2023-04-22T02:40:47.266Z,8.73
2023-04-22T02:43:15.060Z,8.77
2023-04-22T02:45:42.378Z,7.38
2023-04-22T02:48:10.229Z,8.25
2023-04-22T02:50:37.403Z,8.10
2023-04-22T02:53:04.568Z,8.40
2023-04-22T02:55:31.639Z,7.32
2023-04-22T02:57:58.888Z,7.45
2023-04-22T03:00:26.278Z,8.70
2023-04-22T03:02:54.103Z,9.23
2023-04-22T03:05:25.888Z,8.82
2023-04-22T03:07:53.589Z,8.30
2023-04-22T03:10:21.436Z,6.95
2023-04-22T03:12:49.186Z,7.35
2023-04-22T03:15:19.623Z,8.43
2023-04-22T03:17:49.000Z,6.28
2023-04-22T03:20:17.133Z,6.00
2023-04-22T03:22:44.124Z,5.65
2023-04-22T03:25:13.003Z,5.70
2023-04-22T03:27:41.058Z,4.97
2023-04-22T03:30:08.585Z,5.32
2023-04-22T03:32:35.786Z,5.72
2023-04-22T03:35:15.833Z,5.63
2023-04-22T03:37:43.716Z,7.10
2023-04-22T03:40:13.957Z,6.10
2023-04-22T03:42:43.405Z,5.68
2023-04-22T03:45:11.232Z,5.22
2023-04-22T03:47:43.840Z,6.40
2023-04-22T03:50:20.630Z,5.80
2023-04-22T03:52:49.089Z,5.13
2023-04-22T03:55:19.715Z,5.50
2023-04-22T03:57:48.275Z,5.10
2023-04-22T04:00:15.400Z,4.88
2023-04-22T04:02:45.355Z,4.95
2023-04-22T04:05:16.615Z,5.40
2023-04-22T04:07:44.094Z,5.10
2023-04-22T04:10:11.872Z,5.25
2023-04-22T04:12:38.944Z,5.30
2023-04-22T04:15:07.167Z,5.18
2023-04-22T04:17:35.176Z,4.75
2023-04-22T04:20:04.099Z,5.13
2023-04-22T04:22:32.391Z,4.65
2023-04-22T04:25:01.961Z,4.93
2023-04-22T04:27:39.285Z,4.80
2023-04-22T04:30:07.412Z,4.63
2023-04-22T04:32:39.993Z,4.13
2023-04-22T04:35:10.058Z,4.80
2023-04-22T04:37:40.475Z,3.67
2023-04-22T04:40:12.333Z,4.20
2023-04-22T04:43:02.736Z,4.70
2023-04-22T04:45:39.260Z,4.60
2023-04-22T04:48:08.099Z,4.57
2023-04-22T04:50:37.965Z,4.40
2023-04-22T04:53:07.283Z,4.65
2023-04-22T04:55:39.059Z,3.90
2023-04-22T04:58:12.716Z,3.30
2023-04-22T05:00:40.084Z,3.50
2023-04-22T05:03:08.086Z,3.20
2023-04-22T05:05:35.860Z,3.03
2023-04-22T05:08:03.031Z,2.85
2023-04-22T05:10:31.698Z,2.70
2023-04-22T05:12:58.939Z,2.80
2023-04-22T05:15:26.840Z,3.55
2023-04-22T05:17:54.499Z,3.00
2023-04-22T05:20:21.594Z,2.70
2023-04-22T05:22:48.640Z,3.00
2023-04-22T05:25:16.731Z,3.03
2023-04-22T05:27:53.244Z,2.72
2023-04-22T05:30:20.391Z,2.97
2023-04-22T05:32:48.506Z,2.47
2023-04-22T05:35:15.682Z,2.72
2023-04-22T05:37:42.694Z,2.50
2023-04-22T05:40:10.185Z,2.10
2023-04-22T05:42:37.471Z,2.30
2023-04-22T05:45:04.953Z,2.10
2023-04-22T05:47:33.218Z,2.15
2023-04-22T05:50:00.655Z,2.10
2023-04-22T05:52:34.324Z,2.03
2023-04-22T05:55:09.611Z,2.00
2023-04-22T05:57:36.606Z,2.00
2023-04-22T06:00:09.363Z,2.35
2023-04-22T06:02:40.917Z,1.85
2023-04-22T06:05:09.346Z,1.77
2023-04-22T06:07:36.627Z,1.60
2023-04-22T06:10:07.117Z,1.80
2023-04-22T06:12:35.320Z,1.92
2023-04-22T06:15:02.652Z,1.70
2023-04-22T06:17:32.680Z,1.60
2023-04-22T06:20:03.583Z,2.00
2023-04-22T06:22:31.793Z,1.52
2023-04-22T06:24:58.868Z,1.40
2023-04-22T06:27:26.588Z,1.58
2023-04-22T06:29:53.683Z,1.95
2023-04-22T06:32:20.873Z,1.60
2023-04-22T06:34:47.993Z,1.75
2023-04-22T06:37:15.165Z,1.80
2023-04-22T06:39:42.364Z,1.83
2023-04-22T06:42:48.331Z,2.30
2023-04-22T06:45:45.242Z,2.10
2023-04-22T06:48:30.814Z,1.60
2023-04-22T06:51:36.489Z,1.60
2023-04-22T06:54:04.012Z,1.90
2023-04-22T06:56:31.177Z,1.83
2023-04-22T06:58:58.216Z,1.85
2023-04-22T07:01:26.379Z,1.90
2023-04-22T07:03:53.673Z,1.90
2023-04-22T07:06:21.293Z,2.22
2023-04-22T07:08:49.016Z,1.83
2023-04-22T07:11:16.304Z,2.00
2023-04-22T07:13:52.815Z,1.60
2023-04-22T07:16:20.042Z,1.70
2023-04-22T07:18:47.860Z,1.83
2023-04-22T07:21:15.053Z,2.10
2023-04-22T07:23:42.080Z,2.22
2023-04-22T07:26:09.204Z,1.67
2023-04-22T07:28:36.373Z,1.92
2023-04-22T07:31:03.498Z,1.60
2023-04-22T07:33:30.553Z,1.85
2023-04-22T07:35:57.589Z,2.10
2023-04-22T07:38:25.095Z,2.25
2023-04-22T07:40:52.096Z,1.52
2023-04-22T07:43:19.213Z,2.35
2023-04-22T07:45:46.262Z,2.20
2023-04-22T07:48:13.314Z,2.38
2023-04-22T07:50:40.490Z,1.90
2023-04-22T07:53:07.543Z,2.45
2023-04-22T07:55:34.562Z,2.47
2023-04-22T07:58:06.233Z,2.85
2023-04-22T08:00:36.388Z,3.45
2023-04-22T08:03:04.309Z,2.00
2023-04-22T08:05:31.724Z,1.90
2023-04-22T08:07:58.911Z,1.90
2023-04-22T08:10:26.303Z,1.85
2023-04-22T08:12:53.400Z,2.08
2023-04-22T08:15:20.375Z,1.90
2023-04-22T08:17:47.552Z,2.00
2023-04-22T08:20:15.632Z,2.40
2023-04-22T08:22:45.441Z,2.38
2023-04-22T08:25:13.101Z,2.35
2023-04-22T08:27:40.461Z,1.80
2023-04-22T08:30:07.985Z,2.30
2023-04-22T08:32:35.109Z,2.38
2023-04-22T08:35:05.444Z,3.03
2023-04-22T08:37:34.355Z,2.55
2023-04-22T08:40:01.735Z,2.60
2023-04-22T08:42:31.560Z,3.83
2023-04-22T08:44:58.780Z,4.20
2023-04-22T08:47:26.702Z,3.22
2023-04-22T08:49:55.882Z,2.92
2023-04-22T08:52:22.891Z,2.97
2023-04-22T08:54:50.080Z,2.75
2023-04-22T08:57:18.122Z,2.33
2023-04-22T08:59:45.631Z,2.10
2023-04-22T09:02:19.389Z,1.85
2023-04-22T09:04:51.187Z,3.38
2023-04-22T09:07:27.101Z,2.58
2023-04-22T09:09:56.232Z,3.50
2023-04-22T09:12:24.923Z,4.22
2023-04-22T09:14:52.996Z,3.88
2023-04-22T09:17:31.473Z,3.17
2023-04-22T09:20:00.420Z,3.53
2023-04-22T09:22:42.301Z,3.30
2023-04-22T09:25:20.425Z,4.18
2023-04-22T09:27:55.433Z,3.30
2023-04-22T09:30:37.857Z,3.08
2023-04-22T09:33:08.010Z,3.20
2023-04-22T09:35:37.600Z,3.72
2023-04-22T09:38:08.316Z,3.35
2023-04-22T09:40:36.520Z,3.22
2023-04-22T09:43:06.271Z,3.10
2023-04-22T09:45:34.372Z,3.20
2023-04-22T09:48:12.377Z,3.58
2023-04-22T09:50:41.239Z,3.08
2023-04-22T09:53:10.926Z,2.47
2023-04-22T09:55:41.674Z,3.10
2023-04-22T09:58:13.899Z,3.42
2023-04-22T10:00:49.261Z,3.97
2023-04-22T10:03:17.422Z,3.78
2023-04-22T10:05:46.286Z,4.85
2023-04-22T10:08:15.468Z,4.13
2023-04-22T10:10:43.414Z,3.55
2023-04-22T10:13:10.554Z,3.50
2023-04-22T10:15:50.558Z,3.42
2023-04-22T10:18:26.941Z,3.25
2023-04-22T10:20:56.166Z,3.20
2023-04-22T10:23:24.960Z,3.25
2023-04-22T10:25:56.635Z,3.55
2023-04-22T10:28:27.709Z,3.53
2023-04-22T10:30:55.011Z,3.65
2023-04-22T10:33:23.885Z,3.25
2023-04-22T10:36:15.237Z,3.08
2023-04-22T10:39:02.152Z,3.60
2023-04-22T10:44:01.998Z,3.42
2023-04-22T10:46:35.538Z,4.32
2023-04-22T10:49:12.821Z,4.53
2023-04-22T10:51:44.168Z,3.25
2023-04-22T10:54:31.847Z,3.72
2023-04-22T10:57:03.697Z,3.65
2023-04-22T10:59:32.941Z,3.63
2023-04-22T11:02:07.674Z,2.80
2023-04-22T11:04:35.321Z,3.20
2023-04-22T11:07:20.927Z,2.40
2023-04-22T11:09:51.202Z,2.33
2023-04-22T11:12:39.231Z,2.65
2023-04-22T11:15:07.804Z,2.38
2023-04-22T11:17:36.595Z,2.45
2023-04-22T11:20:05.983Z,2.05
2023-04-22T11:22:37.372Z,1.80
2023-04-22T11:25:05.659Z,1.95
2023-04-22T11:27:33.204Z,2.22
2023-04-22T11:30:16.324Z,3.20
2023-04-22T11:32:58.451Z,2.80
2023-04-22T11:35:35.483Z,2.30
2023-04-22T11:40:33.791Z,2.58
2023-04-22T11:43:04.373Z,2.67
2023-04-22T11:45:34.810Z,2.97
2023-04-22T11:48:03.100Z,2.58
2023-04-22T11:50:33.703Z,2.05
2023-04-22T11:53:02.009Z,2.17
2023-04-22T11:55:34.991Z,2.10
2023-04-22T11:58:09.680Z,2.33
2023-04-22T12:00:41.445Z,2.42
2023-04-22T12:03:16.176Z,3.20
2023-04-22T12:05:45.862Z,2.17
2023-04-22T12:08:14.611Z,1.95
2023-04-22T12:10:57.529Z,2.00
2023-04-22T12:13:46.365Z,2.20
2023-04-22T12:16:15.871Z,2.20
2023-04-22T12:18:54.356Z,1.98
2023-04-22T12:21:24.893Z,2.00
2023-04-22T12:23:59.201Z,2.10
2023-04-22T12:26:27.927Z,2.00
2023-04-22T12:28:57.935Z,2.22
2023-04-22T12:31:25.305Z,1.90
2023-04-22T12:33:53.858Z,2.20
2023-04-22T12:36:21.649Z,2.30
2023-04-22T12:38:49.216Z,2.78
2023-04-22T12:41:16.651Z,3.22
2023-04-22T12:43:43.662Z,3.78
2023-04-22T12:46:11.032Z,3.15
2023-04-22T12:48:38.310Z,4.53
2023-04-22T12:51:06.954Z,3.42
2023-04-22T12:53:34.884Z,4.13
2023-04-22T12:56:02.205Z,2.75
2023-04-22T12:58:29.453Z,2.90
2023-04-22T13:00:56.618Z,2.20
2023-04-22T13:03:24.100Z,2.40
2023-04-22T13:05:52.337Z,2.28
2023-04-22T13:08:19.497Z,2.90
2023-04-22T13:10:46.772Z,2.40
2023-04-22T13:13:18.610Z,2.30
2023-04-22T13:15:54.404Z,1.85
2023-04-22T13:18:23.323Z,2.20
2023-04-22T13:20:51.400Z,1.80
2023-04-22T13:23:21.988Z,3.10
2023-04-22T13:25:56.789Z,2.33
2023-04-22T13:28:23.953Z,3.72
2023-04-22T13:30:51.138Z,2.85
2023-04-22T13:33:18.167Z,2.60
2023-04-22T13:35:45.414Z,2.17
2023-04-22T13:38:12.592Z,1.90
2023-04-22T13:40:39.609Z,1.92
2023-04-22T13:43:09.404Z,2.70
2023-04-22T13:45:36.470Z,2.90
2023-04-22T13:48:03.863Z,2.50
2023-04-22T13:50:30.961Z,2.28
2023-04-22T13:52:58.136Z,1.85
2023-04-22T13:55:26.777Z,2.00
2023-04-22T13:57:53.886Z,2.30
2023-04-22T14:00:21.272Z,2.47
2023-04-22T14:02:48.965Z,2.60
2023-04-22T14:05:16.548Z,2.38
2023-04-22T14:07:43.641Z,2.58
2023-04-22T14:10:12.283Z,2.60
2023-04-22T14:12:40.258Z,2.20
2023-04-22T14:15:11.046Z,1.90
2023-04-22T14:17:39.816Z,2.20
2023-04-22T14:20:08.883Z,2.15
2023-04-22T14:22:35.965Z,2.28
2023-04-22T14:25:03.137Z,2.42
2023-04-22T14:27:31.708Z,2.20
2023-04-22T14:29:59.029Z,2.25
2023-04-22T14:32:26.103Z,2.25
2023-04-22T14:34:53.330Z,2.33
2023-04-22T14:37:21.629Z,2.90
2023-04-22T14:39:48.900Z,3.25
2023-04-22T14:42:18.252Z,2.95
2023-04-22T14:44:45.385Z,3.03
2023-04-22T14:47:12.397Z,2.60
2023-04-22T14:49:39.539Z,2.50
2023-04-22T14:52:07.080Z,2.80
2023-04-22T14:54:34.583Z,2.63
2023-04-22T14:57:02.950Z,2.72
2023-04-22T14:59:30.036Z,2.70
2023-04-22T15:01:57.226Z,3.40
2023-04-22T15:04:24.772Z,3.88
2023-04-22T15:06:53.371Z,3.15
2023-04-22T15:09:20.741Z,2.70
2023-04-22T15:11:47.777Z,2.72
2023-04-22T15:14:16.702Z,2.97
2023-04-22T15:16:44.485Z,2.50
2023-04-22T15:19:11.712Z,3.17
2023-04-22T15:21:39.112Z,2.80
2023-04-22T15:24:06.253Z,3.45
2023-04-22T15:26:34.027Z,3.47
2023-04-22T15:29:01.315Z,2.90
2023-04-22T15:31:28.541Z,3.75
2023-04-22T15:33:55.543Z,3.00
2023-04-22T15:36:22.620Z,3.92
2023-04-22T15:38:55.300Z,3.45
2023-04-22T15:41:24.191Z,3.08
2023-04-22T15:43:52.063Z,3.95
2023-04-22T15:46:19.842Z,4.47
2023-04-22T15:48:48.612Z,3.13
2023-04-22T15:51:16.877Z,3.10
2023-04-22T15:53:46.793Z,3.00
2023-04-22T15:56:15.446Z,3.22
2023-04-22T15:58:42.550Z,3.42
2023-04-22T16:01:18.688Z,4.45
2023-04-22T16:03:50.249Z,4.50
2023-04-22T16:06:18.730Z,5.00
2023-04-22T16:08:46.277Z,6.32
2023-04-22T16:11:15.396Z,5.57
2023-04-22T16:13:42.942Z,5.03
2023-04-22T16:16:10.240Z,6.40
2023-04-22T16:18:38.053Z,6.35
2023-04-22T16:21:06.734Z,6.10
2023-04-22T16:23:34.812Z,6.65
2023-04-22T16:26:02.946Z,6.18
2023-04-22T16:28:30.109Z,6.50
2023-04-22T16:30:57.249Z,6.57
2023-04-22T16:33:25.551Z,5.88
2023-04-22T16:35:52.581Z,5.78
2023-04-22T16:38:19.704Z,5.15
2023-04-22T16:40:46.684Z,5.20
2023-04-22T16:43:13.837Z,5.70
2023-04-22T16:45:41.166Z,5.65
2023-04-22T16:48:08.193Z,5.90
2023-04-22T16:50:35.408Z,5.43
2023-04-22T16:53:02.467Z,5.40
2023-04-22T16:55:29.500Z,4.32
2023-04-22T16:57:58.496Z,4.20
2023-04-22T17:00:25.610Z,4.68
2023-04-22T17:02:52.896Z,3.85
2023-04-22T17:05:20.112Z,4.22
2023-04-22T17:07:47.165Z,3.90
2023-04-22T17:10:14.365Z,4.18
2023-04-22T17:12:41.430Z,4.10
2023-04-22T17:15:08.943Z,4.10
2023-04-22T17:17:36.111Z,4.35
2023-04-22T17:20:03.258Z,4.28
2023-04-22T17:22:31.241Z,4.32
2023-04-22T17:24:58.992Z,4.40
2023-04-22T17:27:26.863Z,5.22
2023-04-22T17:29:53.928Z,5.40
2023-04-22T17:32:21.040Z,6.38
2023-04-22T17:34:48.160Z,6.32
2023-04-22T17:37:15.344Z,6.15
2023-04-22T17:39:42.379Z,5.32
2023-04-22T17:42:09.432Z,5.10
2023-04-22T17:44:36.500Z,5.18
2023-04-22T17:47:05.192Z,8.23
2023-04-22T17:49:33.885Z,6.13
2023-04-22T17:52:01.078Z,5.55
2023-04-22T17:54:28.206Z,5.82
2023-04-22T17:56:55.257Z,5.13
2023-04-22T17:59:22.332Z,5.95
2023-04-22T18:01:49.409Z,6.20
2023-04-22T18:04:16.681Z,5.63
2023-04-22T18:06:43.804Z,5.45
2023-04-22T18:09:10.855Z,5.53
2023-04-22T18:11:37.914Z,5.10
2023-04-22T18:14:05.040Z,5.13
2023-04-22T18:16:32.551Z,5.25
2023-04-22T18:19:02.358Z,5.07
2023-04-22T18:21:29.853Z,5.85
2023-04-22T18:23:56.926Z,5.43
2023-04-22T18:26:24.051Z,5.40
2023-04-22T18:28:51.074Z,5.93
2023-04-22T18:31:18.114Z,5.90
2023-04-22T18:33:45.216Z,6.65
2023-04-22T18:36:12.301Z,7.10
2023-04-22T18:38:39.350Z,6.53
2023-04-22T18:41:06.972Z,7.15
2023-04-22T18:43:34.135Z,7.85
2023-04-22T18:46:01.239Z,7.38
2023-04-22T18:48:28.280Z,7.78
2023-04-22T18:50:55.449Z,7.78
2023-04-22T18:53:22.598Z,7.97
2023-04-22T18:55:49.724Z,7.55
2023-04-22T18:58:16.836Z,7.47
2023-04-22T19:00:43.938Z,7.65
2023-04-22T19:03:11.402Z,8.55
2023-04-22T19:05:39.035Z,9.35
2023-04-22T19:08:06.064Z,11.00
2023-04-22T19:10:33.313Z,11.10
2023-04-22T19:13:00.332Z,13.35
2023-04-22T19:15:27.390Z,16.85
2023-04-22T19:17:54.961Z,18.33
2023-04-22T19:20:22.192Z,17.77
2023-04-22T19:22:49.498Z,17.98
2023-04-22T19:25:18.820Z,16.15
2023-04-22T19:27:47.508Z,14.82
2023-04-22T19:30:15.002Z,13.73
2023-04-22T19:32:42.680Z,12.63
2023-04-22T19:35:12.585Z,12.38
2023-04-22T19:37:39.762Z,12.95
2023-04-22T19:40:07.455Z,12.65
2023-04-22T19:42:34.506Z,12.88
2023-04-22T19:45:01.495Z,12.73
2023-04-22T19:47:31.697Z,11.30
2023-04-22T19:49:59.160Z,11.88
2023-04-22T19:52:27.813Z,11.07
2023-04-22T19:54:58.890Z,10.77
2023-04-22T19:57:26.572Z,10.63
2023-04-22T19:59:54.402Z,9.80
2023-04-22T20:02:23.705Z,10.07
2023-04-22T20:04:50.986Z,9.50
2023-04-22T20:07:19.390Z,8.95
2023-04-22T20:09:46.842Z,9.80
2023-04-22T20:12:14.191Z,9.02
2023-04-22T20:14:41.880Z,9.00
2023-04-22T20:17:09.817Z,8.02
2023-04-22T20:19:37.693Z,8.25
2023-04-22T20:22:06.769Z,7.75
2023-04-22T20:24:38.964Z,8.73
2023-04-22T20:27:06.829Z,7.93
2023-04-22T20:29:36.165Z,17.05
2023-04-22T20:32:05.148Z,11.20
2023-04-22T20:34:36.282Z,10.35
2023-04-22T20:37:06.095Z,11.63
2023-04-22T20:39:34.520Z,11.05
2023-04-22T20:42:03.010Z,9.88
2023-04-22T20:44:30.631Z,11.35
2023-04-22T20:46:58.977Z,10.65
2023-04-22T20:49:26.642Z,10.07
2023-04-22T20:51:54.375Z,9.48
2023-04-22T20:54:28.975Z,9.30
2023-04-22T20:56:57.896Z,8.65
2023-04-22T20:59:25.052Z,9.93
2023-04-22T21:01:53.824Z,9.60
2023-04-22T21:04:23.997Z,9.55
2023-04-22T21:06:52.437Z,8.98
2023-04-22T21:09:24.990Z,9.65
2023-04-22T21:11:53.077Z,8.85
2023-04-22T21:14:22.352Z,10.30
2023-04-22T21:17:05.328Z,9.32
2023-04-22T21:19:34.117Z,9.13
2023-04-22T21:22:05.811Z,8.50
2023-04-22T21:24:35.190Z,9.43
2023-04-22T21:27:03.128Z,9.98
2023-04-22T21:29:30.542Z,11.02
2023-04-22T21:32:07.226Z,11.02
2023-04-22T21:34:36.227Z,10.30
2023-04-22T21:37:04.607Z,10.93
2023-04-22T21:39:31.643Z,10.63
2023-04-22T21:41:58.992Z,10.70
2023-04-22T21:44:26.110Z,10.55
2023-04-22T21:46:53.195Z,11.30
2023-04-22T21:49:20.722Z,11.15
2023-04-22T21:51:48.147Z,9.75
2023-04-22T21:54:15.156Z,10.10
2023-04-22T21:56:42.368Z,10.52
2023-04-22T21:59:09.451Z,10.10
2023-04-22T22:01:36.485Z,10.35
2023-04-22T22:04:03.847Z,10.43
2023-04-22T22:06:31.651Z,10.35
2023-04-22T22:08:58.960Z,9.80
2023-04-22T22:11:30.689Z,10.65
2023-04-22T22:13:58.959Z,10.10
2023-04-22T22:16:26.208Z,9.05
2023-04-22T22:18:53.433Z,8.88
2023-04-22T22:21:20.553Z,9.65
2023-04-22T22:23:47.628Z,10.15
2023-04-22T22:26:14.675Z,9.20
2023-04-22T22:28:41.709Z,9.13
2023-04-22T22:31:08.754Z,10.63
2023-04-22T22:33:35.834Z,10.98
2023-04-22T22:36:02.837Z,9.23
2023-04-22T22:38:29.914Z,10.23
2023-04-22T22:40:56.901Z,8.60
2023-04-22T22:43:23.977Z,8.70
2023-04-22T22:45:51.176Z,9.82
2023-04-22T22:48:18.336Z,9.57
2023-04-22T22:50:46.569Z,9.77
2023-04-22T22:53:13.580Z,9.48
2023-04-22T22:55:40.681Z,10.05
2023-04-22T22:58:07.769Z,9.73
2023-04-22T23:00:34.880Z,10.80
2023-04-22T23:03:02.219Z,9.45
2023-04-22T23:05:29.418Z,9.90
2023-04-22T23:07:56.453Z,9.40
2023-04-22T23:10:23.559Z,9.70
2023-04-22T23:12:50.718Z,9.75
2023-04-22T23:15:17.763Z,10.57
2023-04-22T23:17:45.927Z,9.63
2023-04-22T23:20:14.239Z,9.00
2023-04-22T23:22:43.501Z,8.32
2023-04-22T23:25:12.225Z,9.13
2023-04-22T23:27:39.488Z,8.77
2023-04-22T23:30:08.187Z,9.13
2023-04-22T23:32:39.147Z,9.60
2023-04-22T23:35:08.519Z,9.63
2023-04-22T23:37:37.856Z,9.05
2023-04-22T23:40:06.851Z,9.45
2023-04-22T23:42:33.904Z,8.30
2023-04-22T23:45:00.990Z,9.00
2023-04-22T23:47:28.420Z,8.98
2023-04-22T23:49:55.931Z,9.85
2023-04-22T23:52:23.682Z,9.38
2023-04-22T23:54:51.922Z,9.40
2023-04-22T23:57:19.231Z,8.88
2023-04-22T23:59:46.785Z,8.90
